createdAt,value
2023-04-19T00:00:58.631Z,36.6810
2023-04-19T00:02:01.981Z,36.6410
2023-04-19T00:03:04.108Z,36.5960
2023-04-19T00:04:06.388Z,36.5550
2023-04-19T00:05:08.409Z,36.5840
2023-04-19T00:06:10.594Z,36.5550
2023-04-19T00:07:12.739Z,36.5500
2023-04-19T00:08:14.971Z,36.5710
2023-04-19T00:09:15.047Z,36.6110
2023-04-19T00:10:17.286Z,36.6390
2023-04-19T00:11:19.564Z,36.6160
2023-04-19T00:12:21.741Z,36.6160
2023-04-19T00:13:23.961Z,36.5920
2023-04-19T00:14:26.200Z,36.6110
2023-04-19T00:15:28.406Z,36.6110
2023-04-19T00:16:30.643Z,36.6040
2023-04-19T00:17:32.886Z,36.6280
2023-04-19T00:18:35.060Z,36.5980
2023-04-19T00:19:37.286Z,36.6230
2023-04-19T00:20:39.510Z,36.6040
2023-04-19T00:21:39.660Z,36.6380
2023-04-19T00:22:41.783Z,36.6350
2023-04-19T00:23:44.025Z,36.6040
2023-04-19T00:24:46.248Z,36.5540
2023-04-19T00:25:48.492Z,36.5100
2023-04-19T00:26:48.625Z,36.5630
2023-04-19T00:27:50.836Z,36.5520
2023-04-19T00:28:53.086Z,36.5220
2023-04-19T00:29:55.280Z,36.5330
2023-04-19T00:30:57.554Z,36.5590
2023-04-19T00:31:59.820Z,36.5550
2023-04-19T00:33:01.995Z,36.5820
2023-04-19T00:34:04.224Z,36.5520
2023-04-19T00:35:06.446Z,36.5330
2023-04-19T00:36:08.673Z,36.5550
2023-04-19T00:37:08.756Z,36.5470
2023-04-19T00:38:10.949Z,36.5640
2023-04-19T00:39:13.146Z,36.5410
2023-04-19T00:40:15.430Z,36.5550
2023-04-19T00:41:17.655Z,36.5550
2023-04-19T00:42:19.905Z,36.5470
2023-04-19T00:43:22.148Z,36.5320
2023-04-19T00:44:24.402Z,36.5440
2023-04-19T00:45:26.683Z,36.5230
2023-04-19T00:46:28.947Z,36.5170
2023-04-19T00:47:29.088Z,36.5050
2023-04-19T00:48:31.271Z,36.5270
2023-04-19T00:49:33.477Z,36.5040
2023-04-19T00:50:35.725Z,36.5270
2023-04-19T00:51:37.981Z,36.5100
2023-04-19T00:52:40.282Z,36.5210
2023-04-19T00:53:42.479Z,36.4850
2023-04-19T00:54:44.747Z,36.4790
2023-04-19T00:55:47.006Z,36.5000
2023-04-19T00:56:49.294Z,36.5000
2023-04-19T00:57:49.420Z,36.5100
2023-04-19T00:58:51.612Z,36.5200
2023-04-19T00:59:53.821Z,36.5200
2023-04-19T01:00:56.054Z,36.4890
2023-04-19T01:01:58.388Z,36.4780
2023-04-19T01:03:00.725Z,36.4950
2023-04-19T01:04:02.739Z,36.4870
2023-04-19T01:05:04.883Z,36.4720
2023-04-19T01:06:07.074Z,36.4620
2023-04-19T01:07:09.262Z,36.4280
2023-04-19T01:08:11.587Z,36.4390
2023-04-19T01:09:13.667Z,36.4340
2023-04-19T01:10:15.911Z,36.3950
2023-04-19T01:11:16.008Z,36.4150
2023-04-19T01:12:18.252Z,36.3980
2023-04-19T01:13:20.456Z,36.4040
2023-04-19T01:14:22.632Z,36.3980
2023-04-19T01:15:24.856Z,36.3920
2023-04-19T01:16:27.233Z,36.3750
2023-04-19T01:17:29.326Z,36.3930
2023-04-19T01:18:31.644Z,36.4380
2023-04-19T01:19:33.757Z,36.4310
2023-04-19T01:20:35.969Z,36.4470
2023-04-19T01:21:38.118Z,36.4710
2023-04-19T01:22:40.310Z,36.4380
2023-04-19T01:23:42.595Z,36.4520
2023-04-19T01:24:44.759Z,36.5000
2023-04-19T01:25:44.802Z,36.4820
2023-04-19T01:26:47.003Z,36.4770
2023-04-19T01:27:49.253Z,36.4770
2023-04-19T01:28:51.535Z,36.4880
2023-04-19T01:29:53.761Z,36.4650
2023-04-19T01:30:56.036Z,36.4770
2023-04-19T01:31:58.219Z,36.4920
2023-04-19T01:33:00.498Z,36.4920
2023-04-19T01:34:02.702Z,36.4410
2023-04-19T01:35:04.907Z,36.4240
2023-04-19T01:36:07.139Z,36.4410
2023-04-19T01:37:07.200Z,36.4410
2023-04-19T01:38:09.419Z,36.4120
2023-04-19T01:39:11.711Z,36.4180
2023-04-19T01:40:13.880Z,36.4290
2023-04-19T01:41:16.078Z,36.4410
2023-04-19T01:42:18.268Z,36.4350
2023-04-19T01:43:20.456Z,36.4350
2023-04-19T01:44:22.683Z,36.4490
2023-04-19T01:45:24.855Z,36.4580
2023-04-19T01:46:27.147Z,36.5240
2023-04-19T01:47:29.337Z,36.5420
2023-04-19T01:48:31.565Z,36.5350
2023-04-19T01:49:33.802Z,36.5780
2023-04-19T01:50:35.947Z,36.5480
2023-04-19T01:51:38.117Z,36.5270
2023-04-19T01:52:40.382Z,36.4810
2023-04-19T01:53:40.495Z,36.4460
2023-04-19T01:54:42.811Z,36.4350
2023-04-19T01:55:45.056Z,36.4410
2023-04-19T01:56:47.328Z,36.4580
2023-04-19T01:57:49.607Z,36.4710
2023-04-19T01:58:51.875Z,36.4800
2023-04-19T01:59:54.230Z,36.4850
2023-04-19T02:00:56.581Z,36.4630
2023-04-19T02:01:56.634Z,36.4630
2023-04-19T02:02:59.195Z,36.4530
2023-04-19T02:04:01.256Z,36.4320
2023-04-19T02:05:03.373Z,36.4580
2023-04-19T02:06:05.602Z,36.4650
2023-04-19T02:07:07.949Z,36.4950
2023-04-19T02:08:10.162Z,36.4740
2023-04-19T02:09:12.447Z,36.4510
2023-04-19T02:10:12.598Z,36.4380
2023-04-19T02:11:14.781Z,36.4270
2023-04-19T02:12:17.039Z,36.4240
2023-04-19T02:13:19.332Z,36.4540
2023-04-19T02:14:21.613Z,36.4540
2023-04-19T02:15:23.951Z,36.4960
2023-04-19T02:16:26.174Z,36.4960
2023-04-19T02:17:26.328Z,36.5020
2023-04-19T02:18:28.530Z,36.4960
2023-04-19T02:19:30.834Z,36.5230
2023-04-19T02:20:33.170Z,36.5060
2023-04-19T02:21:35.442Z,36.5170
2023-04-19T02:22:37.736Z,36.5210
2023-04-19T02:23:40.035Z,36.5400
2023-04-19T02:24:40.133Z,36.5080
2023-04-19T02:25:42.468Z,36.5000
2023-04-19T02:26:44.681Z,36.5060
2023-04-19T02:27:46.979Z,36.5060
2023-04-19T02:28:49.266Z,36.5480
2023-04-19T02:29:51.534Z,36.5560
2023-04-19T02:30:53.855Z,36.5350
2023-04-19T02:31:56.117Z,36.5620
2023-04-19T02:32:56.286Z,36.5270
2023-04-19T02:33:58.502Z,36.5210
2023-04-19T02:35:00.771Z,36.4810
2023-04-19T02:36:03.071Z,36.4790
2023-04-19T02:37:05.327Z,36.4700
2023-04-19T02:38:07.597Z,36.4480
2023-04-19T02:39:09.822Z,36.4190
2023-04-19T02:40:12.074Z,36.4470
2023-04-19T02:41:12.183Z,36.4490
2023-04-19T02:42:14.386Z,36.4700
2023-04-19T02:43:16.606Z,36.4760
2023-04-19T02:44:18.849Z,36.4760
2023-04-19T02:45:21.072Z,36.4840
2023-04-19T02:46:23.349Z,36.4890
2023-04-19T02:47:25.575Z,36.5500
2023-04-19T02:48:27.777Z,36.5460
2023-04-19T02:49:29.972Z,36.4790
2023-04-19T02:50:32.220Z,36.4580
2023-04-19T02:51:34.430Z,36.4470
2023-04-19T02:53:26.065Z,36.4780
2023-04-19T02:54:26.107Z,36.4920
2023-04-19T02:55:28.300Z,36.4890
2023-04-19T02:56:30.555Z,36.4710
2023-04-19T02:57:32.775Z,36.4510
2023-04-19T02:58:34.934Z,36.4580
2023-04-19T02:59:37.104Z,36.5030
2023-04-19T03:00:39.265Z,36.4880
2023-04-19T03:01:41.484Z,36.4880
2023-04-19T03:02:43.868Z,36.4990
2023-04-19T03:03:45.942Z,36.4930
2023-04-19T03:04:48.073Z,36.4820
2023-04-19T03:05:50.289Z,36.4880
2023-04-19T03:06:52.516Z,36.4970
2023-04-19T03:07:54.767Z,36.5030
2023-04-19T03:08:57.001Z,36.5030
2023-04-19T03:09:59.268Z,36.4860
2023-04-19T03:10:59.346Z,36.4860
2023-04-19T03:12:01.580Z,36.4910
2023-04-19T03:13:03.762Z,36.5140
2023-04-19T03:14:06.008Z,36.4820
2023-04-19T03:15:08.280Z,36.4910
2023-04-19T03:16:10.592Z,36.5140
2023-04-19T03:17:12.835Z,36.4970
2023-04-19T03:18:15.143Z,36.4860
2023-04-19T03:19:17.408Z,36.4860
2023-04-19T03:20:17.543Z,36.4970
2023-04-19T03:21:19.786Z,36.4980
2023-04-19T03:22:22.073Z,36.5040
2023-04-19T03:23:24.398Z,36.5030
2023-04-19T03:24:26.611Z,36.5030
2023-04-19T03:25:28.913Z,36.5310
2023-04-19T03:26:31.153Z,36.5690
2023-04-19T03:27:31.323Z,36.5480
2023-04-19T03:28:33.564Z,36.5340
2023-04-19T03:29:35.801Z,36.5690
2023-04-19T03:30:38.059Z,36.6050
2023-04-19T03:31:40.426Z,36.5850
2023-04-19T03:32:42.613Z,36.5990
2023-04-19T03:33:44.929Z,36.6070
2023-04-19T03:34:45.029Z,36.5900
2023-04-19T03:35:47.316Z,36.5850
2023-04-19T03:36:49.611Z,36.5730
2023-04-19T03:37:51.937Z,36.5850
2023-04-19T03:38:54.270Z,36.5910
2023-04-19T03:39:56.500Z,36.5900
2023-04-19T03:40:58.770Z,36.6050
2023-04-19T03:42:01.057Z,36.6220
2023-04-19T03:43:01.215Z,36.6340
2023-04-19T03:44:03.443Z,36.6340
2023-04-19T03:45:05.665Z,36.6520
2023-04-19T03:46:07.962Z,36.6520
2023-04-19T03:47:10.137Z,36.6280
2023-04-19T03:48:12.401Z,36.6520
2023-04-19T03:49:14.648Z,36.6660
2023-04-19T03:50:16.921Z,36.6960
2023-04-19T03:51:19.204Z,36.7180
2023-04-19T03:52:19.331Z,36.7140
2023-04-19T03:53:21.614Z,36.6960
2023-04-19T03:54:23.934Z,36.6480
2023-04-19T03:55:26.088Z,36.6390
2023-04-19T03:56:28.325Z,36.6750
2023-04-19T03:57:30.580Z,36.6870
2023-04-19T03:58:32.836Z,36.7140
2023-04-19T03:59:35.018Z,36.7350
2023-04-19T04:00:37.211Z,36.7310
2023-04-19T04:01:39.445Z,36.7500
2023-04-19T04:02:41.827Z,36.7340
2023-04-19T04:03:42.094Z,36.7670
2023-04-19T04:04:43.972Z,36.7990
2023-04-19T04:05:45.907Z,36.8110
2023-04-19T04:06:48.069Z,36.8070
2023-04-19T04:07:50.226Z,36.8340
2023-04-19T04:08:52.360Z,36.8540
2023-04-19T04:09:54.547Z,36.8220
2023-04-19T04:10:56.787Z,36.8440
2023-04-19T04:11:59.078Z,36.8800
2023-04-19T04:13:01.360Z,36.8860
2023-04-19T04:14:03.693Z,36.8760
2023-04-19T04:15:05.938Z,36.9070
2023-04-19T04:16:08.242Z,36.9360
2023-04-19T04:17:08.368Z,36.9790
2023-04-19T04:18:10.644Z,37.0560
2023-04-19T04:19:12.940Z,37.0860
2023-04-19T04:20:15.276Z,37.1470
2023-04-19T04:21:17.524Z,37.2010
2023-04-19T04:22:19.799Z,37.1910
2023-04-19T04:23:22.109Z,37.1900
2023-04-19T04:24:22.244Z,37.2010
2023-04-19T04:25:24.567Z,37.2070
2023-04-19T04:26:26.808Z,37.2970
2023-04-19T04:27:29.088Z,37.3300
2023-04-19T04:28:31.375Z,37.3700
2023-04-19T04:29:33.692Z,37.3880
2023-04-19T04:30:36.008Z,37.4020
2023-04-19T04:31:36.234Z,37.4070
2023-04-19T04:32:38.350Z,37.4240
2023-04-19T04:33:40.543Z,37.4720
2023-04-19T04:34:42.778Z,37.5020
2023-04-19T04:35:45.007Z,37.5540
2023-04-19T04:36:47.183Z,37.5840
2023-04-19T04:37:49.424Z,37.6490
2023-04-19T04:38:51.626Z,37.6940
2023-04-19T04:39:53.841Z,37.7300
2023-04-19T04:40:56.207Z,37.7440
2023-04-19T04:41:58.247Z,37.7550
2023-04-19T04:43:00.431Z,37.7720
2023-04-19T04:45:02.803Z,37.8200
2023-04-19T04:46:05.093Z,37.8140
2023-04-19T04:47:07.265Z,37.8250
2023-04-19T04:48:09.512Z,37.8730
2023-04-19T04:49:11.699Z,37.8900
2023-04-19T04:50:13.908Z,37.9080
2023-04-19T04:51:16.190Z,37.9210
2023-04-19T04:52:18.377Z,37.9040
2023-04-19T04:53:20.613Z,37.9220
2023-04-19T04:54:22.797Z,37.9440
2023-04-19T04:55:24.979Z,37.9320
2023-04-19T04:56:27.360Z,37.9500
2023-04-19T04:57:29.395Z,37.9540
2023-04-19T04:58:29.444Z,37.9670
2023-04-19T04:59:31.653Z,37.9790
2023-04-19T05:00:33.923Z,37.9920
2023-04-19T05:01:36.255Z,37.9440
2023-04-19T05:02:38.456Z,37.9810
2023-04-19T05:03:40.715Z,38.0030
2023-04-19T05:04:42.982Z,38.0080
2023-04-19T05:05:45.420Z,38.0740
2023-04-19T05:06:47.442Z,38.0480
2023-04-19T05:07:47.511Z,38.0250
2023-04-19T05:08:49.797Z,38.0470
2023-04-19T05:09:52.045Z,38.0420
2023-04-19T05:10:54.315Z,38.0480
2023-04-19T05:11:56.569Z,38.0700
2023-04-19T05:12:58.805Z,38.0480
2023-04-19T05:14:01.045Z,38.0370
2023-04-19T05:15:03.293Z,38.0580
2023-04-19T05:16:05.701Z,38.1030
2023-04-19T05:17:07.837Z,38.0910
2023-04-19T05:18:07.920Z,38.0520
2023-04-19T05:19:10.197Z,38.0370
2023-04-19T05:20:12.448Z,38.0350
2023-04-19T05:21:14.688Z,38.0550
2023-04-19T05:22:16.923Z,38.0890
2023-04-19T05:23:19.171Z,38.0820
2023-04-19T05:24:21.422Z,38.0530
2023-04-19T05:25:23.699Z,38.0370
2023-04-19T05:26:25.971Z,38.0530
2023-04-19T05:27:26.072Z,38.1010
2023-04-19T05:28:28.338Z,38.0950
2023-04-19T05:29:30.610Z,38.0960
2023-04-19T05:30:32.848Z,38.1610
2023-04-19T05:31:35.180Z,38.1180
2023-04-19T05:32:37.330Z,38.1010
2023-04-19T05:33:39.524Z,38.0740
2023-04-19T05:34:41.760Z,38.0490
2023-04-19T05:35:44.022Z,38.0950
2023-04-19T05:36:44.098Z,38.0590
2023-04-19T05:37:46.352Z,38.0590
2023-04-19T05:38:48.511Z,38.0530
2023-04-19T05:39:50.746Z,38.0300
2023-04-19T05:40:52.978Z,38.0200
2023-04-19T05:41:55.147Z,37.9570
2023-04-19T05:42:57.373Z,37.9570
2023-04-19T05:43:59.568Z,37.9610
2023-04-19T05:45:02.894Z,37.9340
2023-04-19T05:46:04.049Z,37.9260
2023-04-19T05:47:06.306Z,37.9130
2023-04-19T05:48:08.529Z,37.8900
2023-04-19T05:49:10.638Z,37.9070
2023-04-19T05:50:10.723Z,37.8670
2023-04-19T05:51:47.353Z,37.9580
2023-04-19T05:52:49.440Z,37.8950
2023-04-19T05:53:51.630Z,37.8770
2023-04-19T05:54:53.812Z,37.8890
2023-04-19T05:55:56.004Z,37.8530
2023-04-19T05:56:58.256Z,37.8300
2023-04-19T05:58:00.465Z,37.8350
2023-04-19T05:59:02.621Z,37.8060
2023-04-19T06:00:04.719Z,37.8120
2023-04-19T06:01:06.888Z,37.7810
2023-04-19T06:02:09.160Z,37.7650
2023-04-19T06:03:11.285Z,37.8110
2023-04-19T06:04:13.470Z,37.8090
2023-04-19T06:05:15.617Z,37.7590
2023-04-19T06:06:17.831Z,37.7290
2023-04-19T06:07:31.120Z,37.7160
2023-04-19T06:08:21.911Z,37.7360
2023-04-19T06:09:24.138Z,37.7290
2023-04-19T06:10:24.903Z,37.7290
2023-04-19T06:11:31.751Z,37.7440
2023-04-19T06:12:28.541Z,37.7610
2023-04-19T06:13:30.740Z,37.7320
2023-04-19T06:14:33.005Z,37.7230
2023-04-19T06:15:35.220Z,37.7110
2023-04-19T06:16:37.457Z,37.7050
2023-04-19T06:17:39.633Z,37.6460
2023-04-19T06:18:41.794Z,37.6580
2023-04-19T06:19:44.058Z,37.6650
2023-04-19T06:20:46.273Z,37.6310
2023-04-19T06:21:46.386Z,37.6620
2023-04-19T06:22:48.615Z,37.6200
2023-04-19T06:23:50.782Z,37.5810
2023-04-19T06:24:52.974Z,37.5520
2023-04-19T06:25:55.126Z,37.4990
2023-04-19T06:26:57.351Z,37.5470
2023-04-19T06:27:59.587Z,37.5100
2023-04-19T06:29:01.814Z,37.5210
2023-04-19T06:30:04.086Z,37.5210
2023-04-19T06:31:06.320Z,37.5210
2023-04-19T06:32:08.522Z,37.5160
2023-04-19T06:33:10.857Z,37.5130
2023-04-19T06:34:10.815Z,37.5100
2023-04-19T06:35:13.062Z,37.5340
2023-04-19T06:36:15.288Z,37.5640
2023-04-19T06:37:17.544Z,37.5630
2023-04-19T06:38:19.777Z,37.5810
2023-04-19T06:39:22.029Z,37.5630
2023-04-19T06:40:24.299Z,37.5690
2023-04-19T06:41:26.501Z,37.5460
2023-04-19T06:42:26.615Z,37.5270
2023-04-19T06:43:28.902Z,37.5000
2023-04-19T06:44:31.140Z,37.5520
2023-04-19T06:45:33.543Z,37.5750
2023-04-19T06:46:35.625Z,37.5580
2023-04-19T06:47:38.044Z,37.4410
2023-04-19T06:48:40.319Z,37.4290
2023-04-19T06:49:42.618Z,37.4060
2023-04-19T06:50:45.033Z,37.2680
2023-04-19T06:51:47.248Z,37.2650
2023-04-19T06:52:49.499Z,37.2110
2023-04-19T06:53:51.770Z,37.2680
2023-04-19T06:54:51.876Z,37.4450
2023-04-19T06:55:54.146Z,37.5500
2023-04-19T06:56:56.410Z,37.5260
2023-04-19T06:57:58.725Z,37.4600
2023-04-19T06:59:01.316Z,37.4330
2023-04-19T07:00:03.341Z,37.4030
2023-04-19T07:01:05.680Z,37.3840
2023-04-19T07:02:05.926Z,37.3550
2023-04-19T07:03:08.201Z,37.3160
2023-04-19T07:04:10.482Z,37.3040
2023-04-19T07:05:12.550Z,37.2470
2023-04-19T07:06:14.792Z,37.2200
2023-04-19T07:07:17.026Z,37.2400
2023-04-19T07:08:19.289Z,37.2350
2023-04-19T07:09:21.549Z,37.2140
2023-04-19T07:11:11.112Z,37.3180
2023-04-19T07:12:11.201Z,37.3310
2023-04-19T07:13:13.406Z,37.3420
2023-04-19T07:14:15.874Z,37.3180
2023-04-19T07:15:17.809Z,37.2710
2023-04-19T07:16:20.052Z,37.2940
2023-04-19T07:17:22.263Z,37.2770
2023-04-19T07:18:24.400Z,37.3060
2023-04-19T07:19:26.687Z,37.2560
2023-04-19T07:20:28.838Z,37.2890
2023-04-19T07:21:31.058Z,37.2940
2023-04-19T07:22:33.287Z,37.2620
2023-04-19T07:23:35.481Z,37.2850
2023-04-19T07:24:35.552Z,37.2630
2023-04-19T07:25:37.752Z,37.2620
2023-04-19T07:26:39.975Z,37.3120
2023-04-19T07:27:42.221Z,37.3000
2023-04-19T07:28:44.414Z,37.2790
2023-04-19T07:29:46.885Z,37.2520
2023-04-19T07:30:48.855Z,37.2520
2023-04-19T07:31:51.211Z,37.2560
2023-04-19T07:32:53.410Z,37.2310
2023-04-19T07:33:55.575Z,37.1750
2023-04-19T07:34:57.862Z,37.1520
2023-04-19T07:36:00.150Z,37.1400
2023-04-19T07:37:00.283Z,37.1230
2023-04-19T07:38:02.607Z,37.1340
2023-04-19T07:39:04.884Z,37.1350
2023-04-19T07:40:07.162Z,37.1880
2023-04-19T07:41:09.445Z,37.1520
2023-04-19T07:42:11.732Z,37.1460
2023-04-19T07:43:14.014Z,37.1230
2023-04-19T07:44:14.343Z,37.1040
2023-04-19T07:45:16.414Z,37.0920
2023-04-19T07:46:18.788Z,36.9900
2023-04-19T07:47:20.872Z,36.2400
2023-04-19T07:48:23.271Z,35.9150
2023-04-19T07:49:25.432Z,35.7240
2023-04-19T07:50:27.781Z,35.5920
2023-04-19T07:51:27.865Z,35.5780
2023-04-19T07:52:30.109Z,35.5100
2023-04-19T07:53:32.408Z,35.4270
2023-04-19T07:54:34.677Z,35.3650
2023-04-19T07:55:36.957Z,35.3120
2023-04-19T07:56:37.105Z,35.3890
2023-04-19T07:57:39.357Z,35.3610
2023-04-19T07:58:42.109Z,35.5110
2023-04-19T07:59:43.966Z,35.4740
2023-04-19T08:00:46.183Z,35.4740
2023-04-19T08:01:48.551Z,35.4060
2023-04-19T08:02:50.896Z,35.3570
2023-04-19T08:03:53.138Z,35.3230
2023-04-19T08:04:55.306Z,35.3400
2023-04-19T08:05:55.498Z,35.3500
2023-04-19T08:06:57.606Z,35.4320
2023-04-19T08:07:59.879Z,35.4550
2023-04-19T08:09:02.136Z,35.4300
2023-04-19T08:10:04.431Z,35.4000
2023-04-19T08:11:06.734Z,35.4380
2023-04-19T08:12:09.341Z,35.4740
2023-04-19T08:13:11.276Z,35.4420
2023-04-19T08:14:22.203Z,35.5400
2023-04-19T08:17:24.053Z,35.7520
2023-04-19T08:18:20.590Z,35.8160
2023-04-19T08:19:22.953Z,35.8190
2023-04-19T08:20:25.087Z,35.7310
2023-04-19T08:21:34.601Z,35.6350
2023-04-19T08:22:27.460Z,35.6560
2023-04-19T08:23:38.030Z,36.2140
2023-04-19T08:24:29.854Z,36.4060
2023-04-19T08:25:32.084Z,36.5380
2023-04-19T08:26:34.356Z,36.5830
2023-04-19T08:27:36.593Z,36.5610
2023-04-19T08:28:38.867Z,36.5590
2023-04-19T08:29:41.109Z,36.5820
2023-04-19T08:30:43.351Z,36.5730
2023-04-19T08:31:43.517Z,36.5670
2023-04-19T08:32:45.796Z,36.5930
2023-04-19T08:33:48.029Z,36.5570
2023-04-19T08:34:50.272Z,36.5240
2023-04-19T08:35:52.455Z,36.4910
2023-04-19T08:37:03.493Z,36.5140
2023-04-19T08:37:56.885Z,36.5140
2023-04-19T08:39:05.744Z,36.5220
2023-04-19T08:40:01.397Z,36.5280
2023-04-19T08:41:03.604Z,36.4790
2023-04-19T08:42:08.677Z,36.4790
2023-04-19T08:43:05.902Z,36.4900
2023-04-19T08:44:08.662Z,36.4720
2023-04-19T08:45:26.929Z,36.4670
2023-04-19T08:46:12.619Z,36.4930
2023-04-19T08:47:27.223Z,36.4950
2023-04-19T08:48:17.140Z,36.5280
2023-04-19T08:49:19.354Z,36.5000
2023-04-19T08:50:32.548Z,36.4890
2023-04-19T08:51:23.940Z,36.4900
2023-04-19T08:52:24.232Z,36.4560
2023-04-19T08:53:26.320Z,36.4850
2023-04-19T08:54:28.592Z,36.4580
2023-04-19T08:55:30.971Z,36.4900
2023-04-19T08:56:35.963Z,36.4790
2023-04-19T08:57:35.348Z,36.5710
2023-04-19T08:58:56.875Z,36.5590
2023-04-19T08:59:37.675Z,36.5820
2023-04-19T09:00:39.946Z,36.6000
2023-04-19T09:01:44.537Z,36.5680
2023-04-19T09:02:42.351Z,36.5730
2023-04-19T09:04:00.285Z,36.5490
2023-04-19T09:04:44.753Z,36.5680
2023-04-19T09:05:46.961Z,36.5580
2023-04-19T09:06:49.026Z,36.6190
2023-04-19T09:07:51.265Z,36.5920
2023-04-19T09:08:53.446Z,36.5700
2023-04-19T09:10:03.036Z,36.6340
2023-04-19T09:10:57.881Z,36.6220
2023-04-19T09:12:00.146Z,36.6510
2023-04-19T09:13:02.331Z,36.6460
2023-04-19T09:14:04.522Z,36.6120
2023-04-19T09:15:06.744Z,36.5890
2023-04-19T09:16:09.102Z,36.6000
2023-04-19T09:17:11.436Z,36.5890
2023-04-19T09:18:11.286Z,36.6000
2023-04-19T09:20:15.667Z,36.6170
2023-04-19T09:21:17.861Z,36.5770
2023-04-19T09:22:20.016Z,36.6000
2023-04-19T09:23:22.285Z,36.5770
2023-04-19T09:24:25.709Z,36.5890
2023-04-19T09:26:28.923Z,36.5790
2023-04-19T09:27:31.152Z,36.5440
2023-04-19T09:28:33.336Z,36.5410
2023-04-19T09:29:35.535Z,36.5670
2023-04-19T09:30:46.797Z,36.5310
2023-04-19T09:32:42.276Z,36.5580
2023-04-19T09:33:42.339Z,36.5100
2023-04-19T09:34:44.553Z,36.4990
2023-04-19T09:35:46.803Z,36.4640
2023-04-19T09:36:52.424Z,36.4670
2023-04-19T09:38:04.625Z,36.4580
2023-04-19T09:38:53.590Z,36.4760
2023-04-19T09:39:55.858Z,36.4720
2023-04-19T09:40:56.031Z,36.4330
2023-04-19T09:41:58.292Z,36.4210
2023-04-19T09:44:21.596Z,36.4270
2023-04-19T09:45:28.314Z,36.4270
2023-04-19T09:46:05.233Z,36.4060
2023-04-19T09:47:07.652Z,36.3870
2023-04-19T09:48:09.791Z,36.3700
2023-04-19T09:49:21.155Z,36.4120
2023-04-19T09:50:22.538Z,36.4330
2023-04-19T09:51:14.801Z,36.4440
2023-04-19T09:52:14.749Z,36.3990
2023-04-19T09:53:16.759Z,36.3740
2023-04-19T09:54:19.019Z,36.3410
2023-04-19T09:56:23.502Z,36.3020
2023-04-19T09:57:25.778Z,36.3650
2023-04-19T09:58:29.375Z,36.3780
2023-04-19T09:59:28.136Z,36.3970
2023-04-19T10:00:36.035Z,36.3840
2023-04-19T10:01:32.625Z,36.4190
2023-04-19T10:02:34.972Z,36.4250
2023-04-19T10:03:37.157Z,36.4540
2023-04-19T10:05:41.625Z,36.5080
2023-04-19T10:07:06.974Z,36.5480
2023-04-19T10:07:46.069Z,36.6450
2023-04-19T10:08:46.142Z,36.6270
2023-04-19T10:11:56.201Z,36.5240
2023-04-19T10:13:57.461Z,36.6100
2023-04-19T10:16:11.472Z,36.5990
2023-04-19T10:17:02.136Z,36.6350
2023-04-19T10:18:04.311Z,36.6160
2023-04-19T10:19:08.673Z,36.6530
2023-04-19T10:20:06.587Z,36.6760
2023-04-19T10:21:08.801Z,36.6540
2023-04-19T10:22:13.194Z,36.5880
2023-04-19T10:23:04.725Z,36.5770
2023-04-19T10:24:07.054Z,36.5220
2023-04-19T10:25:09.238Z,36.5170
2023-04-19T10:26:11.463Z,36.4820
2023-04-19T10:27:13.726Z,36.4080
2023-04-19T10:28:13.817Z,36.4200
2023-04-19T10:29:16.539Z,36.3700
2023-04-19T10:30:18.357Z,36.3800
2023-04-19T10:31:20.590Z,36.4010
2023-04-19T10:32:22.875Z,36.3940
2023-04-19T10:33:25.078Z,36.4160
2023-04-19T10:34:27.361Z,36.4410
2023-04-19T10:35:29.577Z,36.4060
2023-04-19T10:36:31.836Z,36.3670
2023-04-19T10:37:31.936Z,36.3280
2023-04-19T10:38:34.176Z,36.2780
2023-04-19T10:39:36.442Z,36.3270
2023-04-19T10:40:38.647Z,36.3540
2023-04-19T10:41:40.787Z,36.4050
2023-04-19T10:42:43.029Z,36.3540
2023-04-19T10:43:45.239Z,36.3270
2023-04-19T10:44:47.496Z,36.2750
2023-04-19T10:45:49.785Z,36.1890
2023-04-19T10:46:52.066Z,36.2190
2023-04-19T10:47:54.361Z,36.2190
2023-04-19T10:48:56.608Z,36.2100
2023-04-19T10:49:56.841Z,36.2050
2023-04-19T10:50:58.971Z,36.2160
2023-04-19T10:52:01.216Z,36.2160
2023-04-19T10:53:03.471Z,36.1830
2023-04-19T10:54:05.734Z,36.1550
2023-04-19T10:55:08.061Z,36.2100
2023-04-19T10:56:10.264Z,36.1930
2023-04-19T10:57:10.370Z,36.1870
2023-04-19T10:58:12.605Z,36.1930
2023-04-19T10:59:15.203Z,36.1890
2023-04-19T11:00:17.178Z,36.1820
2023-04-19T11:01:08.728Z,36.1820
2023-04-19T11:02:11.017Z,36.1760
2023-04-19T11:03:13.273Z,36.1600
2023-04-19T11:04:15.564Z,36.1600
2023-04-19T11:05:20.219Z,36.1480
2023-04-19T11:06:17.773Z,36.1300
2023-04-19T11:07:20.032Z,36.1430
2023-04-19T11:08:22.312Z,36.1130
2023-04-19T11:09:24.587Z,36.1180
2023-04-19T11:10:26.854Z,36.0900
2023-04-19T11:11:29.175Z,36.1030
2023-04-19T11:12:31.414Z,36.1030
2023-04-19T11:13:33.691Z,36.0970
2023-04-19T11:14:33.809Z,36.0860
2023-04-19T11:15:36.144Z,36.0250
2023-04-19T11:16:45.432Z,35.9720
2023-04-19T11:17:40.618Z,36.0250
2023-04-19T11:18:42.877Z,36.0130
2023-04-19T11:19:45.115Z,35.9960
2023-04-19T11:20:47.362Z,35.9500
2023-04-19T11:21:49.684Z,35.9330
2023-04-19T11:22:51.816Z,35.9210
2023-04-19T11:23:51.928Z,35.9220
2023-04-19T11:24:54.164Z,35.9160
2023-04-19T11:25:56.413Z,35.8990
2023-04-19T11:26:58.733Z,35.9430
2023-04-19T11:28:00.879Z,35.9830
2023-04-19T11:29:03.152Z,35.9210
2023-04-19T11:30:05.419Z,35.8750
2023-04-19T11:31:07.720Z,35.8700
2023-04-19T11:32:09.986Z,35.8880
2023-04-19T11:33:10.080Z,35.8480
2023-04-19T11:34:12.404Z,35.8360
2023-04-19T11:35:14.584Z,35.8370
2023-04-19T11:36:16.820Z,35.9150
2023-04-19T11:37:19.064Z,35.9560
2023-04-19T11:38:21.282Z,35.9450
2023-04-19T11:39:23.549Z,35.9690
2023-04-19T11:41:53.864Z,36.0840
2023-04-19T11:42:56.041Z,36.0980
2023-04-19T11:43:58.187Z,36.0710
2023-04-19T11:45:00.411Z,36.0580
2023-04-19T11:46:02.623Z,36.0560
2023-04-19T11:47:02.974Z,36.0810
2023-04-19T11:48:04.988Z,36.1230
2023-04-19T11:49:07.185Z,36.1800
2023-04-19T11:50:09.463Z,36.2370
2023-04-19T11:51:11.559Z,36.2300
2023-04-19T11:52:13.808Z,36.2110
2023-04-19T11:53:16.103Z,36.2240
2023-04-19T11:54:18.554Z,36.2020
2023-04-19T11:55:20.557Z,36.1890
2023-04-19T11:56:22.783Z,36.1650
2023-04-19T11:57:25.028Z,36.1540
2023-04-19T11:58:25.188Z,36.2110
2023-04-19T11:59:27.383Z,36.2130
2023-04-19T12:00:29.621Z,36.1860
2023-04-19T12:01:31.876Z,36.1500
2023-04-19T12:02:34.188Z,36.1050
2023-04-19T12:03:36.799Z,36.0810
2023-04-19T12:04:38.913Z,36.0990
2023-04-19T12:05:41.021Z,36.0450
2023-04-19T12:06:43.155Z,36.0560
2023-04-19T12:07:43.292Z,36.0390
2023-04-19T12:08:45.555Z,36.0580
2023-04-19T12:09:47.783Z,36.0520
2023-04-19T12:10:50.061Z,36.1160
2023-04-19T12:11:52.427Z,36.1770
2023-04-19T12:12:54.567Z,36.1000
2023-04-19T12:13:56.839Z,36.0580
2023-04-19T12:14:59.081Z,36.0940
2023-04-19T12:15:59.157Z,36.1480
2023-04-19T12:17:01.519Z,36.1190
2023-04-19T12:18:03.691Z,36.1420
2023-04-19T12:19:05.952Z,36.1870
2023-04-19T12:20:08.377Z,36.2650
2023-04-19T12:21:10.425Z,36.1790
2023-04-19T12:22:12.646Z,36.1390
2023-04-19T12:23:14.862Z,36.1370
2023-04-19T12:24:17.097Z,36.1730
2023-04-19T12:25:19.322Z,36.1270
2023-04-19T12:26:19.433Z,36.0450
2023-04-19T12:27:21.710Z,36.0010
2023-04-19T12:28:23.957Z,36.0100
2023-04-19T12:29:26.231Z,36.0070
2023-04-19T12:30:28.372Z,36.0410
2023-04-19T12:31:30.606Z,36.0740
2023-04-19T12:32:32.825Z,36.0350
2023-04-19T12:33:35.035Z,36.0740
2023-04-19T12:34:37.418Z,36.0240
2023-04-19T12:35:39.544Z,36.0340
2023-04-19T12:36:41.799Z,36.0660
2023-04-19T12:37:41.876Z,36.0010
2023-04-19T12:38:44.161Z,36.0220
2023-04-19T12:39:46.340Z,36.0450
2023-04-19T12:40:48.578Z,36.0100
2023-04-19T12:41:50.794Z,35.9980
2023-04-19T12:42:53.059Z,36.0220
2023-04-19T12:43:55.320Z,35.9980
2023-04-19T12:44:57.663Z,36.0130
2023-04-19T12:45:59.909Z,35.9960
2023-04-19T12:47:02.156Z,35.9710